< < Back
Terminal Aerodrome Forecast


Current Version              Previous Versions:   1  2  3  4  5  6  7  8  9  

Terminal Aerodrome Forecast

453
FTUS44 KOHX 102323
TAFBNA
TAF
KBNA 102323Z 1100/1124 28007KT 5SM -SHSN OVC045
      TEMPO 1100/1104 2SM -SN BR
     FM110500 14003KT P6SM OVC035
     FM111900 04005KT P6SM BKN250=

Latest METAR

088
SAUS70 KWBC 110600 RRX
MTRBNA
METAR KBNA 110553Z COR 10003KT 10SM OVC065 M03/M07 A3018 RMK AO2 SLP227
4/001 60002 T10331067 11028 21039 410061072 58010


USA.gov is the U.S. government's official web portal to all federal, state and local government web resources and services.